createdAt,value
2022-09-01T00:00:01.829Z,62.62
2022-09-01T00:02:28.869Z,62.56
2022-09-01T00:04:55.471Z,62.67
2022-09-01T00:07:21.770Z,62.67
2022-09-01T00:09:48.062Z,62.84
2022-09-01T00:12:14.515Z,62.89
2022-09-01T00:14:41.601Z,62.98
2022-09-01T00:17:08.089Z,63.04
2022-09-01T00:19:34.926Z,62.62
2022-09-01T00:22:01.505Z,62.90
2022-09-01T00:24:27.894Z,63.06
2022-09-01T00:26:55.108Z,63.12
2022-09-01T00:29:21.514Z,62.70
2022-09-01T00:31:47.922Z,63.30
2022-09-01T00:34:14.320Z,62.55
2022-09-01T00:36:40.747Z,62.88
2022-09-01T00:39:07.123Z,62.83
2022-09-01T00:41:39.768Z,63.15
2022-09-01T00:44:06.441Z,62.95
2022-09-01T00:46:32.927Z,62.99
2022-09-01T00:49:01.871Z,62.95
2022-09-01T00:51:28.222Z,63.15
2022-09-01T00:53:54.832Z,63.00
2022-09-01T00:56:21.194Z,63.16
2022-09-01T00:58:47.509Z,63.26
2022-09-01T01:01:13.861Z,63.17
2022-09-01T01:03:40.725Z,63.22
2022-09-01T01:06:07.022Z,63.29
2022-09-01T01:08:33.394Z,63.15
2022-09-01T01:10:59.928Z,63.34
2022-09-01T01:13:26.372Z,63.50
2022-09-01T01:15:52.718Z,63.50
2022-09-01T01:18:23.454Z,63.18
2022-09-01T01:20:50.241Z,63.17
2022-09-01T01:23:16.532Z,63.32
2022-09-01T01:25:44.233Z,63.17
2022-09-01T01:28:10.543Z,63.14
2022-09-01T01:30:37.177Z,63.35
2022-09-01T01:33:03.599Z,63.61
2022-09-01T01:35:29.930Z,63.62
2022-09-01T01:37:56.366Z,63.21
2022-09-01T01:40:22.834Z,63.56
2022-09-01T01:42:49.561Z,63.44
2022-09-01T01:45:16.113Z,63.09
2022-09-01T01:47:42.509Z,63.30
2022-09-01T01:50:09.053Z,63.40
2022-09-01T01:52:35.339Z,63.54
2022-09-01T01:55:05.328Z,63.58
2022-09-01T01:57:31.734Z,63.70
2022-09-01T01:59:58.081Z,63.42
2022-09-01T02:02:24.513Z,63.91
2022-09-01T02:04:50.990Z,63.35
2022-09-01T02:07:17.826Z,63.35
2022-09-01T02:09:44.224Z,63.22
2022-09-01T02:12:10.601Z,63.54
2022-09-01T02:14:37.054Z,63.84
2022-09-01T02:17:03.429Z,63.77
2022-09-01T02:19:29.889Z,64.03
2022-09-01T02:21:56.275Z,63.71
2022-09-01T02:24:22.665Z,63.52
2022-09-01T02:26:48.974Z,63.73
2022-09-01T02:29:15.349Z,63.54
2022-09-01T02:31:42.374Z,63.50
2022-09-01T02:34:08.779Z,63.74
2022-09-01T02:36:35.173Z,63.47
2022-09-01T02:39:01.531Z,63.61
2022-09-01T02:41:27.976Z,63.74
2022-09-01T02:43:54.524Z,63.71
2022-09-01T02:46:20.912Z,63.94
2022-09-01T02:48:47.388Z,63.51
2022-09-01T02:51:13.646Z,63.94
2022-09-01T02:53:39.962Z,63.89
2022-09-01T02:56:06.490Z,63.97
2022-09-01T02:58:32.899Z,63.89
2022-09-01T03:01:00.036Z,63.94
2022-09-01T03:03:26.833Z,63.71
2022-09-01T03:05:53.365Z,63.67
2022-09-01T03:08:19.864Z,63.89
2022-09-01T03:10:46.796Z,63.94
2022-09-01T03:13:13.309Z,63.73
2022-09-01T03:15:39.632Z,63.72
2022-09-01T03:18:06.054Z,63.81
2022-09-01T03:20:32.488Z,63.93
2022-09-01T03:22:58.828Z,63.68
2022-09-01T03:25:25.157Z,63.84
2022-09-01T03:27:51.706Z,64.10
2022-09-01T03:30:18.034Z,64.21
2022-09-01T03:32:46.191Z,64.08
2022-09-01T03:35:12.549Z,64.05
2022-09-01T03:37:38.929Z,63.89
2022-09-01T03:40:05.311Z,64.08
2022-09-01T03:42:31.630Z,63.91
2022-09-01T03:44:58.027Z,64.06
2022-09-01T03:47:24.469Z,64.12
2022-09-01T03:49:50.914Z,63.80
2022-09-01T03:52:17.368Z,63.82
2022-09-01T03:54:43.800Z,63.92
2022-09-01T03:57:10.105Z,64.23
2022-09-01T03:59:36.574Z,64.16
2022-09-01T04:02:04.216Z,64.17
2022-09-01T04:04:30.821Z,63.84
2022-09-01T04:06:57.449Z,63.81
2022-09-01T04:09:25.122Z,63.78
2022-09-01T04:11:51.500Z,64.09
2022-09-01T04:14:17.902Z,64.46
2022-09-01T04:16:44.951Z,63.76
2022-09-01T04:19:11.368Z,64.20
2022-09-01T04:21:37.634Z,64.01
2022-09-01T04:24:03.965Z,64.30
2022-09-01T04:26:30.266Z,64.23
2022-09-01T04:28:57.455Z,63.98
2022-09-01T04:31:24.007Z,63.87
2022-09-01T04:33:50.604Z,63.90
2022-09-01T04:36:17.105Z,64.16
2022-09-01T04:38:43.557Z,64.04
2022-09-01T04:41:09.816Z,64.24
2022-09-01T04:43:36.177Z,63.96
2022-09-01T04:46:02.788Z,64.24
2022-09-01T04:48:29.621Z,64.24
2022-09-01T04:50:56.459Z,63.89
2022-09-01T04:53:22.801Z,64.32
2022-09-01T04:55:54.816Z,63.97
2022-09-01T04:58:21.222Z,64.28
2022-09-01T05:00:47.737Z,64.42
2022-09-01T05:03:14.130Z,64.03
2022-09-01T05:05:40.508Z,64.00
2022-09-01T05:08:06.908Z,64.18
2022-09-01T05:10:33.209Z,64.41
2022-09-01T05:12:59.533Z,64.20
2022-09-01T05:15:25.878Z,64.46
2022-09-01T05:17:52.441Z,64.10
2022-09-01T05:20:20.698Z,64.37
2022-09-01T05:22:47.057Z,64.02
2022-09-01T05:25:13.435Z,64.51
2022-09-01T05:27:39.855Z,64.36
2022-09-01T05:30:06.361Z,64.52
2022-09-01T05:32:32.760Z,64.36
2022-09-01T05:34:59.145Z,64.35
2022-09-01T05:37:25.553Z,64.31
2022-09-01T05:39:51.845Z,63.98
2022-09-01T05:42:18.182Z,64.43
2022-09-01T05:44:44.611Z,64.13
2022-09-01T05:47:11.030Z,64.15
2022-09-01T05:49:47.086Z,64.00
2022-09-01T05:52:13.438Z,64.11
2022-09-01T05:54:39.930Z,63.61
2022-09-01T05:57:23.768Z,63.86
2022-09-01T05:59:52.618Z,63.77
2022-09-01T06:02:19.096Z,63.86
2022-09-01T06:04:45.562Z,64.19
2022-09-01T06:07:13.642Z,64.06
2022-09-01T06:09:43.252Z,63.87
2022-09-01T06:12:13.815Z,64.35
2022-09-01T06:14:40.245Z,65.26
2022-09-01T06:17:06.883Z,64.05
2022-09-01T06:19:36.974Z,64.12
2022-09-01T06:22:04.159Z,63.92
2022-09-01T06:24:30.584Z,64.22
2022-09-01T06:26:56.954Z,64.57
2022-09-01T06:29:23.356Z,64.36
2022-09-01T06:31:49.839Z,64.34
2022-09-01T06:34:16.250Z,64.28
2022-09-01T06:36:42.660Z,64.03
2022-09-01T06:39:09.029Z,64.00
2022-09-01T06:41:35.355Z,64.30
2022-09-01T06:44:01.673Z,64.36
2022-09-01T06:46:28.197Z,64.01
2022-09-01T06:48:54.683Z,63.93
2022-09-01T06:51:21.821Z,64.01
2022-09-01T06:53:49.350Z,64.06
2022-09-01T06:56:15.883Z,64.24
2022-09-01T06:58:42.274Z,64.02
2022-09-01T07:01:10.377Z,64.11
2022-09-01T07:03:39.847Z,63.75
2022-09-01T07:06:06.260Z,64.48
2022-09-01T07:08:32.987Z,64.38
2022-09-01T07:16:33.375Z,64.08
2022-09-01T07:19:02.816Z,64.36
2022-09-01T07:21:39.127Z,64.09
2022-09-01T07:24:11.089Z,64.24
2022-09-01T07:26:46.375Z,63.89
2022-09-01T07:29:13.826Z,64.19
2022-09-01T07:34:46.310Z,64.09
2022-09-01T07:45:29.366Z,64.11
2022-09-01T07:47:55.785Z,64.38
2022-09-01T07:50:39.820Z,63.93
2022-09-01T07:53:07.213Z,64.17
2022-09-01T07:55:33.584Z,63.82
2022-09-01T07:58:01.268Z,64.10
2022-09-01T08:00:31.025Z,64.04
2022-09-01T08:02:57.886Z,63.84
2022-09-01T08:05:25.035Z,64.14
2022-09-01T08:07:52.480Z,63.56
2022-09-01T08:10:20.217Z,63.60
2022-09-01T08:12:46.982Z,63.50
2022-09-01T08:18:08.730Z,63.34
2022-09-01T08:20:35.121Z,63.47
2022-09-01T08:23:01.710Z,63.33
2022-09-01T08:25:28.000Z,63.29
2022-09-01T08:27:59.801Z,63.19
2022-09-01T08:30:26.418Z,63.39
2022-09-01T08:32:53.175Z,64.07
2022-09-01T08:35:19.989Z,63.96
2022-09-01T08:37:46.384Z,63.66
2022-09-01T08:40:12.945Z,64.14
2022-09-01T08:42:39.397Z,63.84
2022-09-01T08:45:05.750Z,63.97
2022-09-01T08:47:43.703Z,63.68
2022-09-01T08:50:11.007Z,63.94
2022-09-01T08:52:37.368Z,63.75
2022-09-01T08:55:03.721Z,63.56
2022-09-01T08:57:30.088Z,63.33
2022-09-01T08:59:56.793Z,63.47
2022-09-01T09:02:23.367Z,63.43
2022-09-01T09:04:49.873Z,63.78
2022-09-01T09:07:16.176Z,63.83
2022-09-01T09:09:42.598Z,63.50
2022-09-01T09:12:08.935Z,63.31
2022-09-01T09:14:35.293Z,63.79
2022-09-01T09:17:01.971Z,63.54
2022-09-01T09:19:28.348Z,63.64
2022-09-01T09:21:54.977Z,63.49
2022-09-01T09:24:22.684Z,63.11
2022-09-01T09:26:49.362Z,63.33
2022-09-01T09:29:15.682Z,62.92
2022-09-01T09:31:42.116Z,63.37
2022-09-01T09:34:09.998Z,63.38
2022-09-01T09:36:36.422Z,63.17
2022-09-01T09:39:02.970Z,63.46
2022-09-01T09:41:30.069Z,63.26
2022-09-01T09:43:56.417Z,63.30
2022-09-01T09:46:24.542Z,62.95
2022-09-01T09:48:52.049Z,62.66
2022-09-01T09:51:18.383Z,63.01
2022-09-01T09:53:44.733Z,62.80
2022-09-01T09:56:11.071Z,62.86
2022-09-01T09:58:37.488Z,62.97
2022-09-01T10:01:05.256Z,62.98
2022-09-01T10:03:31.819Z,62.32
2022-09-01T10:05:58.215Z,62.81
2022-09-01T10:08:24.563Z,62.79
2022-09-01T10:10:58.180Z,62.58
2022-09-01T10:13:25.068Z,62.97
2022-09-01T10:15:51.670Z,62.88
2022-09-01T10:18:28.493Z,62.71
2022-09-01T10:20:55.618Z,62.60
2022-09-01T10:23:22.749Z,62.63
2022-09-01T10:25:50.236Z,62.84
2022-09-01T10:28:20.976Z,62.76
2022-09-01T10:30:47.611Z,62.81
2022-09-01T10:33:19.912Z,62.78
2022-09-01T10:35:48.179Z,62.70
2022-09-01T10:38:14.675Z,63.14
2022-09-01T10:40:43.851Z,62.93
2022-09-01T10:43:12.431Z,63.10
2022-09-01T10:45:43.145Z,63.15
2022-09-01T10:48:13.281Z,62.93
2022-09-01T10:50:39.707Z,63.14
2022-09-01T10:53:06.441Z,63.26
2022-09-01T10:55:32.907Z,63.21
2022-09-01T10:58:08.483Z,62.99
2022-09-01T11:01:10.748Z,63.22
2022-09-01T11:03:40.895Z,63.37
2022-09-01T11:06:12.310Z,63.31
2022-09-01T11:08:39.439Z,63.07
2022-09-01T11:11:05.704Z,63.19
2022-09-01T11:13:33.037Z,63.49
2022-09-01T11:16:00.746Z,62.75
2022-09-01T11:18:27.207Z,63.36
2022-09-01T11:20:53.892Z,63.08
2022-09-01T11:23:20.262Z,63.11
2022-09-01T11:25:47.441Z,63.00
2022-09-01T11:28:14.293Z,62.89
2022-09-01T11:30:40.842Z,62.96
2022-09-01T11:33:08.354Z,62.98
2022-09-01T11:35:34.901Z,63.27
2022-09-01T11:38:03.668Z,62.96
2022-09-01T11:40:32.588Z,63.27
2022-09-01T11:42:59.130Z,62.73
2022-09-01T11:45:25.918Z,62.63
2022-09-01T11:47:52.273Z,62.88
2022-09-01T11:50:18.606Z,62.44
2022-09-01T11:52:44.967Z,62.82
2022-09-01T11:55:11.265Z,62.86
2022-09-01T11:57:37.598Z,62.91
2022-09-01T12:00:03.992Z,62.71
2022-09-01T12:02:30.762Z,62.72
2022-09-01T12:04:57.294Z,62.82
2022-09-01T12:07:23.929Z,63.33
2022-09-01T12:09:50.665Z,63.20
2022-09-01T12:12:17.030Z,63.32
2022-09-01T12:15:02.363Z,63.14
2022-09-01T12:17:29.933Z,63.34
2022-09-01T12:19:56.285Z,63.39
2022-09-01T12:22:22.600Z,63.20
2022-09-01T12:24:49.118Z,63.45
2022-09-01T12:27:16.687Z,63.05
2022-09-01T12:29:43.022Z,63.18
2022-09-01T12:32:09.395Z,62.96
2022-09-01T12:34:35.823Z,62.84
2022-09-01T12:37:02.558Z,62.76
2022-09-01T12:39:29.186Z,63.00
2022-09-01T12:41:55.656Z,62.95
2022-09-01T12:44:21.989Z,62.82
2022-09-01T12:46:48.329Z,63.19
2022-09-01T12:51:46.081Z,63.22
2022-09-01T12:54:12.415Z,62.80
2022-09-01T12:56:38.762Z,62.72
2022-09-01T12:59:05.117Z,63.23
2022-09-01T13:01:31.564Z,63.01
2022-09-01T13:03:58.063Z,63.33
2022-09-01T13:06:24.494Z,63.18
2022-09-01T13:08:50.871Z,62.99
2022-09-01T13:11:17.386Z,63.25
2022-09-01T13:13:43.656Z,63.17
2022-09-01T13:16:09.980Z,63.57
2022-09-01T13:19:10.469Z,63.22
2022-09-01T13:21:22.624Z,63.15
2022-09-01T13:23:49.002Z,63.31
2022-09-01T13:26:15.320Z,63.49
2022-09-01T13:28:41.813Z,63.44
2022-09-01T13:34:11.035Z,63.38
2022-09-01T13:36:43.668Z,63.27
2022-09-01T13:39:12.345Z,63.92
2022-09-01T13:41:38.955Z,63.41
2022-09-01T13:44:05.510Z,63.77
2022-09-01T13:46:31.973Z,64.10
2022-09-01T13:49:42.143Z,64.02
2022-09-01T13:51:46.678Z,63.99
2022-09-01T13:54:12.982Z,63.81
2022-09-01T13:56:39.445Z,63.50
2022-09-01T13:59:05.902Z,64.15
2022-09-01T14:01:32.210Z,63.73
2022-09-01T14:04:00.502Z,63.96
2022-09-01T14:06:27.406Z,63.62
2022-09-01T14:08:53.789Z,64.01
2022-09-01T14:11:20.149Z,63.74
2022-09-01T14:13:46.430Z,63.67
2022-09-01T14:16:12.931Z,63.89
2022-09-01T14:18:39.552Z,63.62
2022-09-01T14:21:05.942Z,64.11
2022-09-01T14:23:32.369Z,63.82
2022-09-01T14:25:58.883Z,63.88
2022-09-01T14:28:25.430Z,63.92
2022-09-01T14:33:17.076Z,63.94
2022-09-01T14:35:43.654Z,64.00
2022-09-01T14:38:10.176Z,63.84
2022-09-01T14:40:36.944Z,63.83
2022-09-01T14:43:03.360Z,64.25
2022-09-01T14:45:29.705Z,63.95
2022-09-01T14:47:56.494Z,63.77
2022-09-01T14:50:23.386Z,64.21
2022-09-01T14:52:49.918Z,64.01
2022-09-01T14:55:16.936Z,64.30
2022-09-01T14:57:43.358Z,64.18
2022-09-01T15:00:09.871Z,64.13
2022-09-01T15:02:36.231Z,64.03
2022-09-01T15:05:02.824Z,64.38
2022-09-01T15:07:29.336Z,64.04
2022-09-01T15:09:55.707Z,64.38
2022-09-01T15:12:22.005Z,64.27
2022-09-01T15:14:48.339Z,64.14
2022-09-01T15:17:14.665Z,64.10
2022-09-01T15:19:41.476Z,64.04
2022-09-01T15:22:08.464Z,64.03
2022-09-01T15:24:34.802Z,64.37
2022-09-01T15:27:01.197Z,64.38
2022-09-01T15:29:27.663Z,64.69
2022-09-01T15:31:54.139Z,64.27
2022-09-01T15:34:20.716Z,64.67
2022-09-01T15:36:47.129Z,64.45
2022-09-01T15:39:13.474Z,64.81
2022-09-01T15:41:39.832Z,64.34
2022-09-01T15:44:06.261Z,64.52
2022-09-01T15:46:32.674Z,64.72
2022-09-01T15:48:59.164Z,64.55
2022-09-01T15:51:25.551Z,64.64
2022-09-01T15:53:51.908Z,64.50
2022-09-01T15:56:18.261Z,64.93
2022-09-01T15:59:00.212Z,64.63
2022-09-01T16:01:27.788Z,64.52
2022-09-01T16:03:54.298Z,64.57
2022-09-01T16:06:20.637Z,64.87
2022-09-01T16:08:47.772Z,64.81
2022-09-01T16:11:14.092Z,64.50
2022-09-01T16:13:40.438Z,64.46
2022-09-01T16:16:06.950Z,64.72
2022-09-01T16:18:33.562Z,64.52
2022-09-01T16:20:59.913Z,64.45
2022-09-01T16:23:26.635Z,64.69
2022-09-01T16:25:53.163Z,64.51
2022-09-01T16:28:19.439Z,64.66
2022-09-01T16:30:45.847Z,60.97
2022-09-01T16:33:12.444Z,58.59
2022-09-01T16:35:38.912Z,57.54
2022-09-01T16:38:05.242Z,58.35
2022-09-01T16:40:31.679Z,58.60
2022-09-01T16:42:58.311Z,59.50
2022-09-01T16:45:25.035Z,58.61
2022-09-01T16:47:52.983Z,59.08
2022-09-01T16:50:19.493Z,58.97
2022-09-01T16:52:45.790Z,58.67
2022-09-01T16:55:12.112Z,58.82
2022-09-01T16:57:38.371Z,58.66
2022-09-01T17:00:05.726Z,58.60
2022-09-01T17:02:32.214Z,59.09
2022-09-01T17:04:58.657Z,58.41
2022-09-01T17:07:29.447Z,57.82
2022-09-01T17:09:56.204Z,57.57
2022-09-01T17:12:22.578Z,58.06
2022-09-01T17:14:49.026Z,58.09
2022-09-01T17:17:15.414Z,57.67
2022-09-01T17:19:42.332Z,57.61
2022-09-01T17:22:08.786Z,57.32
2022-09-01T17:24:35.533Z,57.23
2022-09-01T17:27:02.761Z,57.46
2022-09-01T17:29:29.184Z,57.35
2022-09-01T17:31:55.493Z,56.91
2022-09-01T17:34:22.584Z,56.83
2022-09-01T17:36:49.152Z,56.67
2022-09-01T17:39:15.521Z,57.65
2022-09-01T17:41:41.937Z,57.29
2022-09-01T17:44:08.478Z,57.63
2022-09-01T17:46:34.877Z,57.13
2022-09-01T17:49:02.320Z,57.08
2022-09-01T17:51:29.758Z,57.38
2022-09-01T17:53:56.108Z,57.49
2022-09-01T17:56:23.560Z,57.14
2022-09-01T17:58:49.862Z,56.99
2022-09-01T18:01:16.388Z,56.92
2022-09-01T18:03:42.766Z,57.34
2022-09-01T18:06:09.211Z,56.80
2022-09-01T18:08:35.604Z,56.48
2022-09-01T18:11:02.439Z,56.90
2022-09-01T18:13:51.719Z,56.35
2022-09-01T18:16:15.242Z,56.83
2022-09-01T18:18:41.673Z,56.25
2022-09-01T18:21:08.061Z,56.31
2022-09-01T18:23:34.388Z,56.32
2022-09-01T18:26:00.925Z,56.75
2022-09-01T18:28:27.570Z,55.86
2022-09-01T18:30:54.971Z,56.31
2022-09-01T18:33:21.416Z,56.16
2022-09-01T18:35:48.113Z,55.74
2022-09-01T18:38:14.461Z,56.30
2022-09-01T18:40:40.806Z,56.43
2022-09-01T18:43:07.631Z,55.65
2022-09-01T18:45:33.992Z,56.26
2022-09-01T18:48:01.909Z,55.75
2022-09-01T18:50:28.254Z,55.77
2022-09-01T18:52:54.526Z,55.86
2022-09-01T18:55:20.998Z,56.00
2022-09-01T18:57:47.347Z,56.31
2022-09-01T19:00:18.782Z,55.82
2022-09-01T19:02:46.812Z,55.69
2022-09-01T19:05:13.530Z,56.22
2022-09-01T19:07:39.988Z,56.18
2022-09-01T19:10:06.427Z,56.18
2022-09-01T19:12:32.804Z,56.07
2022-09-01T19:14:59.152Z,55.70
2022-09-01T19:17:25.494Z,55.68
2022-09-01T19:19:51.921Z,56.16
2022-09-01T19:22:18.206Z,55.90
2022-09-01T19:24:44.531Z,55.64
2022-09-01T19:27:10.962Z,55.71
2022-09-01T19:29:37.363Z,55.49
2022-09-01T19:32:03.944Z,55.75
2022-09-01T19:34:30.308Z,56.44
2022-09-01T19:36:56.771Z,55.67
2022-09-01T19:39:23.256Z,55.48
2022-09-01T19:41:50.823Z,55.70
2022-09-01T19:44:17.241Z,55.42
2022-09-01T19:46:43.592Z,55.06
2022-09-01T19:49:10.217Z,55.08
2022-09-01T19:51:36.607Z,55.16
2022-09-01T19:54:03.260Z,55.47
2022-09-01T19:56:29.695Z,54.98
2022-09-01T19:58:56.250Z,55.40
2022-09-01T20:01:22.815Z,55.80
2022-09-01T20:03:49.318Z,55.91
2022-09-01T20:06:15.977Z,56.52
2022-09-01T20:08:43.073Z,56.29
2022-09-01T20:11:09.773Z,57.05
2022-09-01T20:13:36.174Z,57.54
2022-09-01T20:16:02.558Z,57.76
2022-09-01T20:18:28.912Z,58.09
2022-09-01T20:20:55.368Z,58.23
2022-09-01T20:23:21.942Z,58.72
2022-09-01T20:25:49.558Z,58.59
2022-09-01T20:28:15.860Z,58.58
2022-09-01T20:30:42.426Z,58.68
2022-09-01T20:33:10.126Z,58.87
2022-09-01T20:35:39.220Z,59.03
2022-09-01T20:38:06.463Z,59.03
2022-09-01T20:40:32.898Z,59.18
2022-09-01T20:42:59.335Z,59.60
2022-09-01T20:45:25.600Z,59.62
2022-09-01T20:47:52.000Z,59.76
2022-09-01T20:50:18.303Z,59.63
2022-09-01T20:52:44.607Z,59.96
2022-09-01T20:55:10.949Z,59.84
2022-09-01T20:57:37.273Z,60.45
2022-09-01T21:00:03.573Z,60.13
2022-09-01T21:02:30.111Z,60.33
2022-09-01T21:04:56.572Z,60.18
2022-09-01T21:07:22.850Z,60.62
2022-09-01T21:09:49.295Z,60.28
2022-09-01T21:12:15.590Z,60.71
2022-09-01T21:14:42.148Z,60.41
2022-09-01T21:17:08.658Z,61.07
2022-09-01T21:19:34.982Z,60.75
2022-09-01T21:22:01.336Z,60.79
2022-09-01T21:24:27.672Z,61.05
2022-09-01T21:26:54.142Z,60.86
2022-09-01T21:29:20.524Z,60.87
2022-09-01T21:31:48.483Z,60.99
2022-09-01T21:34:16.944Z,60.91
2022-09-01T21:36:43.524Z,61.23
2022-09-01T21:39:10.791Z,61.31
2022-09-01T21:41:38.913Z,61.52
2022-09-01T21:44:05.242Z,61.55
2022-09-01T21:46:31.547Z,61.29
2022-09-01T21:48:57.949Z,61.62
2022-09-01T21:51:24.522Z,61.93
2022-09-01T21:53:50.856Z,61.83
2022-09-01T21:56:17.475Z,62.07
2022-09-01T21:58:52.228Z,61.78
2022-09-01T22:01:18.644Z,61.85
2022-09-01T22:03:45.106Z,61.45
2022-09-01T22:06:11.717Z,61.68
2022-09-01T22:08:38.199Z,60.44
2022-09-01T22:11:04.541Z,61.33
2022-09-01T22:13:30.985Z,60.89
2022-09-01T22:15:57.749Z,61.51
2022-09-01T22:18:24.079Z,61.85
2022-09-01T22:20:50.416Z,61.80
2022-09-01T22:23:16.853Z,61.75
2022-09-01T22:25:43.196Z,61.78
2022-09-01T22:28:09.530Z,61.65
2022-09-01T22:30:36.038Z,61.54
2022-09-01T22:33:02.477Z,61.56
2022-09-01T22:35:29.021Z,61.56
2022-09-01T22:37:55.362Z,61.47
2022-09-01T22:40:22.898Z,61.50
2022-09-01T22:42:49.234Z,61.13
2022-09-01T22:45:15.552Z,61.41
2022-09-01T22:47:41.980Z,61.48
2022-09-01T22:50:08.383Z,61.04
2022-09-01T22:52:34.783Z,61.39
2022-09-01T22:55:01.064Z,61.16
2022-09-01T22:57:27.507Z,60.94
2022-09-01T22:59:53.864Z,61.53
2022-09-01T23:02:20.258Z,60.93
2022-09-01T23:04:46.772Z,61.30
2022-09-01T23:07:13.160Z,61.42
2022-09-01T23:09:39.483Z,61.06
2022-09-01T23:12:05.924Z,61.44
2022-09-01T23:14:32.276Z,61.22
2022-09-01T23:16:58.845Z,61.04
2022-09-01T23:19:25.270Z,61.20
2022-09-01T23:21:51.664Z,60.75
2022-09-01T23:24:19.814Z,61.02
2022-09-01T23:26:46.420Z,61.05
2022-09-01T23:29:13.080Z,61.13
2022-09-01T23:31:39.624Z,61.10
2022-09-01T23:34:06.244Z,61.00
2022-09-01T23:36:32.884Z,61.07
2022-09-01T23:38:59.301Z,60.95
2022-09-01T23:41:25.611Z,60.91
2022-09-01T23:43:51.964Z,61.20
2022-09-01T23:46:18.418Z,61.14
2022-09-01T23:48:44.813Z,60.80
2022-09-01T23:51:11.118Z,60.99
2022-09-01T23:53:37.455Z,61.01
2022-09-01T23:56:03.753Z,61.34
2022-09-01T23:58:30.058Z,61.21
